^^
Saratoga-Weather Station Historical Data
Daily Summary for February 22, 2021 Units:  Metric    English   Both
Daily Weekly Monthly Yearly Custom
  High: Low: Average:
Temperature: 10.1 °C 8.2 °C 9 °C
Dew Point: 8.5 °C 6.2 °C 7.1 °C
Humidity: 91% 86% 88%
Wind Speed: 20.9km/h 0km/h 3.5km/h
Wind Gust: 25.7km/h - -
Wind- - SW
Pressure: 1006.1 hPa 1004.4 hPa -
Precipitation: 0.0 mm    
Historical Graphs
 
 
Tabular Data for February 22, 2021
Time Temperature Dew Point Pressure Wind Wind Speed Wind Gust Humidity Rainfall Rate (Hourly) solar
00:00 10.1 °C 8.5 °C 1004.7 hPa North 1.4 km/h 3.2 km/h 90% 2.5 mm 0 W/m2
00:05 10 °C 8.4 °C 1004.4 hPa NNW 1.4 km/h 4.8 km/h 90% 2.3 mm 0 W/m2
00:10 10 °C 8.4 °C 1004.7 hPa Calm   9.7 km/h 90% 1.0 mm 0 W/m2
00:15 10 °C 8.4 °C 1004.4 hPa SW 1.4 km/h 1.6 km/h 90% 0.2 mm 0 W/m2
00:20 9.9 °C 8.3 °C 1004.4 hPa Calm     90% 0.0 mm 0 W/m2
00:25 9.8 °C 8.2 °C 1004.7 hPa Calm   4.8 km/h 90% 0.0 mm 0 W/m2
00:30 9.7 °C 8.3 °C 1004.7 hPa Calm   4.8 km/h 91% 0.0 mm 0 W/m2
00:35 9.7 °C 8.3 °C 1004.7 hPa Calm   3.2 km/h 91% 0.0 mm 0 W/m2
00:40 9.7 °C 8.3 °C 1004.7 hPa NNE 1.4 km/h 1.6 km/h 91% 0.0 mm 0 W/m2
00:45 9.6 °C 8.2 °C 1004.7 hPa North 4.7 km/h 4.8 km/h 91% 0.0 mm 0 W/m2
00:50 9.6 °C 8.2 °C 1005.1 hPa NNE 1.4 km/h 3.2 km/h 91% 0.0 mm 0 W/m2
00:55 9.5 °C 8.1 °C 1005.1 hPa East 1.4 km/h 9.7 km/h 91% 0.0 mm 0 W/m2
01:00 9.5 °C 8.1 °C 1005.1 hPa NNW 3.2 km/h 4.8 km/h 91% 0.0 mm 0 W/m2
01:05 9.5 °C 8.1 °C 1005.1 hPa NW 1.4 km/h 6.4 km/h 91% 0.0 mm 0 W/m2
01:10 9.6 °C 8.2 °C 1005.1 hPa Calm   1.6 km/h 91% 0.0 mm 0 W/m2
01:15 9.6 °C 8.2 °C 1005.1 hPa Calm   6.4 km/h 91% 0.0 mm 0 W/m2
01:20 9.6 °C 8 °C 1005.1 hPa NW 4.7 km/h 6.4 km/h 90% 0.0 mm 0 W/m2
01:25 9.6 °C 8.2 °C 1005.4 hPa NNW 1.4 km/h 3.2 km/h 91% 0.0 mm 0 W/m2
01:30 9.6 °C 8.2 °C 1005.1 hPa NW 4.7 km/h 11.3 km/h 91% 0.0 mm 0 W/m2
01:35 9.6 °C 8.2 °C 1005.1 hPa NE 1.4 km/h 4.8 km/h 91% 0.0 mm 0 W/m2
01:40 9.6 °C 8.2 °C 1005.1 hPa NNW 6.4 km/h 8 km/h 91% 0.0 mm 0 W/m2
01:45 9.6 °C 8.2 °C 1005.1 hPa East 4.7 km/h 12.9 km/h 91% 0.0 mm 0 W/m2
01:50 9.6 °C 8 °C 1005.1 hPa Calm   14.5 km/h 90% 0.0 mm 0 W/m2
01:55 9.6 °C 7.9 °C 1005.4 hPa North 3.2 km/h 4.8 km/h 89% 0.0 mm 0 W/m2
02:00 9.6 °C 7.9 °C 1005.1 hPa Calm   17.7 km/h 89% 0.0 mm 0 W/m2
02:05 9.6 °C 7.9 °C 1005.1 hPa East 1.4 km/h 6.4 km/h 89% 0.0 mm 0 W/m2
02:10 9.5 °C 7.8 °C 1005.1 hPa South 1.4 km/h 17.7 km/h 89% 0.0 mm 0 W/m2
02:15 9.4 °C 7.5 °C 1005.1 hPa West 9.7 km/h 12.9 km/h 88% 0.0 mm 0 W/m2
02:20 9.4 °C 7.3 °C 1005.1 hPa WNW 13 km/h 12.9 km/h 87% 0.0 mm 0 W/m2
02:25 9.4 °C 7.3 °C 1005.4 hPa North 3.2 km/h 8 km/h 87% 0.0 mm 0 W/m2
02:30 9.3 °C 7.2 °C 1005.4 hPa North 4.7 km/h 14.5 km/h 87% 0.0 mm 0 W/m2
02:35 9.2 °C 7.1 °C 1005.1 hPa North 4.7 km/h 6.4 km/h 87% 0.0 mm 0 W/m2
02:40 9.1 °C 7.1 °C 1005.4 hPa ENE 3.2 km/h 9.7 km/h 87% 0.0 mm 0 W/m2
02:45 9.1 °C 7.1 °C 1005.4 hPa West 4.7 km/h 6.4 km/h 87% 0.0 mm 0 W/m2
02:50 9 °C 7 °C 1005.4 hPa NW 6.4 km/h 8 km/h 87% 0.0 mm 0 W/m2
02:55 8.9 °C 6.9 °C 1005.4 hPa SSW 3.2 km/h 4.8 km/h 87% 0.0 mm 0 W/m2
03:00 8.8 °C 6.8 °C 1005.4 hPa WNW 3.2 km/h 4.8 km/h 87% 0.0 mm 0 W/m2
03:05 8.8 °C 6.8 °C 1005.4 hPa NNW 1.4 km/h 3.2 km/h 87% 0.0 mm 0 W/m2
03:10 8.8 °C 6.8 °C 1005.4 hPa NW 20.9 km/h 20.9 km/h 87% 0.0 mm 0 W/m2
03:15 8.8 °C 6.6 °C 1005.4 hPa SW 3.2 km/h 9.7 km/h 86% 0.0 mm 0 W/m2
03:20 8.7 °C 6.5 °C 1005.8 hPa NNW 1.4 km/h 11.3 km/h 86% 0.0 mm 0 W/m2
03:25 8.6 °C 6.4 °C 1005.8 hPa North 1.4 km/h 6.4 km/h 86% 0.0 mm 0 W/m2
03:30 8.6 °C 6.4 °C 1005.8 hPa NW 1.4 km/h 6.4 km/h 86% 0.0 mm 0 W/m2
03:35 8.5 °C 6.3 °C 1005.8 hPa NNE 1.4 km/h 14.5 km/h 86% 0.0 mm 0 W/m2
03:40 8.5 °C 6.5 °C 1005.8 hPa NE 4.7 km/h 14.5 km/h 87% 0.0 mm 0 W/m2
03:45 8.4 °C 6.4 °C 1005.8 hPa Calm   9.7 km/h 87% 0.0 mm 0 W/m2
03:50 8.4 °C 6.4 °C 1005.8 hPa NNE 1.4 km/h 4.8 km/h 87% 0.0 mm 0 W/m2
03:55 8.5 °C 6.3 °C 1005.8 hPa NNE 1.4 km/h 4.8 km/h 86% 0.0 mm 0 W/m2
04:01 8.4 °C 6.4 °C 1005.8 hPa NW 3.2 km/h 4.8 km/h 87% 0.0 mm 0 W/m2
04:06 8.4 °C 6.4 °C 1005.8 hPa Calm   9.7 km/h 87% 0.0 mm 0 W/m2
04:11 8.4 °C 6.4 °C 1005.8 hPa NE 1.4 km/h 3.2 km/h 87% 0.0 mm 0 W/m2
04:16 8.4 °C 6.4 °C 1005.8 hPa NW 4.7 km/h 9.7 km/h 87% 0.0 mm 0 W/m2
04:21 8.4 °C 6.4 °C 1005.8 hPa NNW 6.4 km/h 6.4 km/h 87% 0.0 mm 0 W/m2
04:26 8.4 °C 6.4 °C 1005.8 hPa West 11.1 km/h 11.3 km/h 87% 0.0 mm 0 W/m2
04:31 8.4 °C 6.4 °C 1005.8 hPa WSW 3.2 km/h 4.8 km/h 87% 0.0 mm 0 W/m2
04:36 8.4 °C 6.4 °C 1005.8 hPa NNW 1.4 km/h 9.7 km/h 87% 0.0 mm 0 W/m2
04:41 8.4 °C 6.4 °C 1005.8 hPa NW 1.4 km/h 6.4 km/h 87% 0.0 mm 0 W/m2
04:46 8.4 °C 6.4 °C 1005.8 hPa North 4.7 km/h 8 km/h 87% 0.0 mm 0 W/m2
04:51 8.4 °C 6.4 °C 1005.8 hPa NNW 1.4 km/h 4.8 km/h 87% 0.0 mm 0 W/m2
04:56 8.3 °C 6.3 °C 1005.8 hPa Calm   9.7 km/h 87% 0.0 mm 0 W/m2
05:01 8.3 °C 6.3 °C 1005.8 hPa East 3.2 km/h 6.4 km/h 87% 0.0 mm 0 W/m2
05:06 8.2 °C 6.3 °C 1005.8 hPa North 1.4 km/h 6.4 km/h 88% 0.0 mm 0 W/m2
05:11 8.2 °C 6.3 °C 1006.1 hPa NNW 3.2 km/h 6.4 km/h 88% 0.0 mm 0 W/m2
05:16 8.2 °C 6.2 °C 1006.1 hPa NW 14.3 km/h 14.5 km/h 87% 0.0 mm 0 W/m2
05:21 8.3 °C 6.3 °C 1005.8 hPa NNW 6.4 km/h 6.4 km/h 87% 0.0 mm 0 W/m2
05:26 8.3 °C 6.3 °C 1006.1 hPa WSW 4.7 km/h 12.9 km/h 87% 0.0 mm 0 W/m2
05:31 8.3 °C 6.3 °C 1006.1 hPa SW 1.4 km/h 4.8 km/h 87% 0.0 mm 0 W/m2
05:36 8.3 °C 6.3 °C 1005.8 hPa NE 4.7 km/h 8 km/h 87% 0.0 mm 0 W/m2
05:41 8.3 °C 6.3 °C 1005.8 hPa NNW 1.4 km/h 11.3 km/h 87% 0.0 mm 0 W/m2
05:46 8.4 °C 6.4 °C 1005.8 hPa WNW 3.2 km/h 6.4 km/h 87% 0.0 mm 0 W/m2
05:51 8.4 °C 6.2 °C 1006.1 hPa West 4.7 km/h 11.3 km/h 86% 0.0 mm 0 W/m2
05:56 8.6 °C 6.4 °C 1006.1 hPa NE 3.2 km/h 8 km/h 86% 0.0 mm 5 W/m2
06:01 8.6 °C 6.4 °C 1006.1 hPa NW 3.2 km/h 11.3 km/h 86% 0.0 mm 9 W/m2
06:06 8.6 °C 6.4 °C 1006.1 hPa NW 4.7 km/h 6.4 km/h 86% 0.0 mm 12 W/m2
06:11 8.7 °C 6.5 °C 1006.1 hPa NE 6.4 km/h 6.4 km/h 86% 0.0 mm 7 W/m2
06:16 8.7 °C 6.5 °C 1006.1 hPa NNW 3.2 km/h 12.9 km/h 86% 0.0 mm 7 W/m2
06:21 8.8 °C 6.6 °C 1006.1 hPa NNE 3.2 km/h 8 km/h 86% 0.0 mm 5 W/m2
06:26 8.8 °C 6.6 °C 1006.1 hPa NW 3.2 km/h 4.8 km/h 86% 0.0 mm 7 W/m2
06:31 8.8 °C 6.6 °C 1006.1 hPa SW 11.1 km/h 11.3 km/h 86% 0.0 mm 12 W/m2
06:36 8.8 °C 6.6 °C 1006.1 hPa NNW 6.4 km/h 14.5 km/h 86% 0.0 mm 14 W/m2
06:41 8.8 °C 6.6 °C 1006.1 hPa Calm   4.8 km/h 86% 0.0 mm 14 W/m2
06:46 8.8 °C 6.6 °C 1006.1 hPa NNW 3.2 km/h 6.4 km/h 86% 0.0 mm 18 W/m2
06:51 8.9 °C 6.7 °C 1006.1 hPa WSW 6.4 km/h 16.1 km/h 86% 0.0 mm 23 W/m2
06:56 8.9 °C 6.7 °C 1006.1 hPa NW 3.2 km/h 6.4 km/h 86% 0.0 mm 30 W/m2
07:01 8.9 °C 6.7 °C 1006.1 hPa WNW 6.4 km/h 6.4 km/h 86% 0.0 mm 35 W/m2
07:06 8.9 °C 6.7 °C 1006.1 hPa NNE 3.2 km/h 8 km/h 86% 0.0 mm 40 W/m2
07:11 8.9 °C 6.7 °C 1006.1 hPa ESE 3.2 km/h 12.9 km/h 86% 0.0 mm 42 W/m2
07:16 8.9 °C 6.9 °C 1006.1 hPa ENE 4.7 km/h 9.7 km/h 87% 0.0 mm 44 W/m2
07:21 8.8 °C 6.8 °C 1006.1 hPa NW 3.2 km/h 25.7 km/h 87% 0.0 mm 63 W/m2
07:26 8.9 °C 6.9 °C 1006.1 hPa NNW 6.4 km/h 9.7 km/h 87% 0.0 mm 83 W/m2
07:31 8.9 °C 6.9 °C 1006.1 hPa NNE 3.2 km/h 14.5 km/h 87% 0.0 mm 111 W/m2
Juneau County Weather
Compliments of Weather Underground - 2 mb